Woody, CA

11:50 PM PDT on August 22, 2014 (GMT -0700)
RAWS WOFFORD HEIGHTS CA US | Change Station
CLOSE
Current Station
Personal Weather Station
Location: Wofford Heights, CA
Elevation: 3149 ft
Nearby Weather Stations

Elev 3149 ft 35.72 °N, 118.50 °W | Updated 50 minutes ago

Clear
Clear
68 °F
Feels Like 68 °F
N
4
Wind Variable Wind from WNW
Gusts 11.0 mph

Today
High -- | Low -- °F
--% Chance of Precip.
Yesterday
High -- | Low -- °F
Precip. -- in
6:19 AM 7:35 PM
Waning Crescent, 5% visible
Pressure 29.86 in
Visibility 10.0 miles
Clouds Clear
Dew Point 43 °F
Humidity 40%
Rainfall 0.00 in
Snow Depth Not available.
UV 0 out of 12
Pollen 8.50 out of 12
PM2.5 Moderate
Flu Activity Not available.
METAR KBFL 230554Z AUTO 01007KT 10SM CLR 28/09 A2988 RMK AO2 SLP109 T02780094 10367 20278 53019

More Conditions Fewer Conditions

Pressure 29.86 in
Visibility 10.0 miles
Clouds Clear
Dew Point 43 °F
Humidity 40%
Rainfall 0.00 in
Snow Depth Not available.
UV 0 out of 12
Pollen 8.50 out of 12
PM2.5 Moderate
Flu Activity Not available.
METAR KBFL 230554Z AUTO 01007KT 10SM CLR 28/09 A2988 RMK AO2 SLP109 T02780094 10367 20278 53019

More Conditions Fewer Conditions

10-Day Weather Forecast

Almanac

Astronomy

Aug. 22, 2014 Rise Set
Actual Time 6:19 AM PDT 7:35 PM PDT
Civil Twilight 5:53 AM PDT 8:02 PM PDT
Nautical Twilight 5:21 AM PDT 8:34 PM PDT
Astronomical Twilight 4:48 AM PDT 9:07 PM PDT
Moon 3:49 AM PDT (8/22) 5:45 PM PDT (8/22)
Length of Visible Light 14h 09m
Length of Day
13h 16m
Tomorrow will be 2m 5s shorter.
Waning Crescent, 5% of the Moon is Illuminated
Aug 23
Waning Crescent
Aug 25
New
Sep 2
First Quarter
Sep 8
Full
Sep 15
Last Quarter

Community

WunderPhotos

Upload Photos

1,746,371 photos uploaded!

WunderBlogs® & News

By Dr. Jeff Masters
Director of Meteorology, Weather Underground
By Kari Strenfel
Meteorologist, Weather Underground
By Christopher C. Burt
Weather Historian, Weather Underground
August 23, 2014
August 23, 2014
August 22, 2014

Nearby

Air Quality

  Air Quality AQ Index Pollutant
Yesterday Moderate
OZONE
Yesterday Good
PM2.5
Current Moderate
PM2.5
Friday Unhealthy for Sensitive Groups
OZONE
Saturday Good
OZONE
Sunday Good
OZONE
Monday Good
OZONE
Tuesday Good
OZONE
Wednesday Good
OZONE

Snow Depth

Station Depth Elevation
Leavitt Lake 1 in 9400 ft
Leavitt Meadows 1 in 7200 ft
Summit Meadow 1 in 9122 ft
Blue Lakes 0 in 8000 ft
Monitor Pass 0 in 8350 ft

Earthquake Activity

City Distance Mag. Time & Date
Coalinga, California 103 miles 2.5 7:03 AM PDT
2014-08-18
West Hills, California 102 miles 2.5 4:21 AM PDT
2014-08-18
Big Bear City, California 146 miles 3.7 9:55 PM PDT
2014-08-17
Minimum magnitude displayed is 2.5.

Coastal Water Temperatures

Place Temperature
No Stations Reporting

Nearby Weather Stations